sensor_id;sensor_type;location;lat;lon;timestamp;P1;durP1;ratioP1;P2;durP2;ratioP2
21492;SDS011;10908;50.690;4.400;2023-03-01T00:01:00;14.63;;;7.35;;
21492;SDS011;10908;50.690;4.400;2023-03-01T00:03:30;14.70;;;7.40;;
21492;SDS011;10908;50.690;4.400;2023-03-01T00:05:56;13.40;;;7.20;;
21492;SDS011;10908;50.690;4.400;2023-03-01T00:08:22;13.57;;;7.40;;
21492;SDS011;10908;50.690;4.400;2023-03-01T00:10:48;13.52;;;7.13;;
21492;SDS011;10908;50.690;4.400;2023-03-01T00:13:14;12.32;;;7.40;;
21492;SDS011;10908;50.690;4.400;2023-03-01T00:15:40;13.35;;;7.55;;
21492;SDS011;10908;50.690;4.400;2023-03-01T00:18:06;13.25;;;7.18;;
21492;SDS011;10908;50.690;4.400;2023-03-01T00:20:33;14.52;;;6.95;;
21492;SDS011;10908;50.690;4.400;2023-03-01T00:22:59;12.20;;;7.25;;
21492;SDS011;10908;50.690;4.400;2023-03-01T00:25:24;14.23;;;7.75;;
21492;SDS011;10908;50.690;4.400;2023-03-01T00:27:50;14.38;;;7.80;;
21492;SDS011;10908;50.690;4.400;2023-03-01T00:30:15;14.23;;;8.07;;
21492;SDS011;10908;50.690;4.400;2023-03-01T00:32:41;13.38;;;7.97;;
21492;SDS011;10908;50.690;4.400;2023-03-01T00:35:07;15.27;;;8.02;;
21492;SDS011;10908;50.690;4.400;2023-03-01T00:37:33;17.23;;;8.90;;
21492;SDS011;10908;50.690;4.400;2023-03-01T00:39:58;16.85;;;8.55;;
21492;SDS011;10908;50.690;4.400;2023-03-01T00:42:24;12.93;;;7.30;;
21492;SDS011;10908;50.690;4.400;2023-03-01T00:44:49;13.80;;;7.93;;
21492;SDS011;10908;50.690;4.400;2023-03-01T00:47:15;15.07;;;8.13;;
21492;SDS011;10908;50.690;4.400;2023-03-01T00:49:41;14.65;;;7.53;;
21492;SDS011;10908;50.690;4.400;2023-03-01T00:52:06;15.38;;;7.93;;
21492;SDS011;10908;50.690;4.400;2023-03-01T00:54:32;13.98;;;8.23;;
21492;SDS011;10908;50.690;4.400;2023-03-01T00:56:57;19.75;;;8.32;;
21492;SDS011;10908;50.690;4.400;2023-03-01T00:59:23;16.48;;;8.90;;
21492;SDS011;10908;50.690;4.400;2023-03-01T01:01:49;15.13;;;8.15;;
21492;SDS011;10908;50.690;4.400;2023-03-01T01:04:14;14.45;;;8.57;;
21492;SDS011;10908;50.690;4.400;2023-03-01T01:06:41;15.88;;;8.27;;
21492;SDS011;10908;50.690;4.400;2023-03-01T01:09:09;15.02;;;8.88;;
21492;SDS011;10908;50.690;4.400;2023-03-01T01:11:46;14.98;;;8.32;;
21492;SDS011;10908;50.690;4.400;2023-03-01T01:14:13;15.00;;;8.60;;
21492;SDS011;10908;50.690;4.400;2023-03-01T01:16:39;15.63;;;8.68;;
21492;SDS011;10908;50.690;4.400;2023-03-01T01:19:05;16.40;;;8.93;;
21492;SDS011;10908;50.690;4.400;2023-03-01T01:21:31;15.45;;;8.35;;
21492;SDS011;10908;50.690;4.400;2023-03-01T01:23:57;14.65;;;8.18;;
21492;SDS011;10908;50.690;4.400;2023-03-01T01:26:27;17.25;;;8.52;;
21492;SDS011;10908;50.690;4.400;2023-03-01T01:28:55;17.67;;;9.10;;
21492;SDS011;10908;50.690;4.400;2023-03-01T01:31:21;14.60;;;8.02;;
21492;SDS011;10908;50.690;4.400;2023-03-01T01:33:51;14.93;;;8.45;;
21492;SDS011;10908;50.690;4.400;2023-03-01T01:36:17;13.65;;;7.45;;
21492;SDS011;10908;50.690;4.400;2023-03-01T01:38:43;13.52;;;7.70;;
21492;SDS011;10908;50.690;4.400;2023-03-01T01:41:09;14.23;;;8.02;;
21492;SDS011;10908;50.690;4.400;2023-03-01T01:43:49;14.20;;;7.60;;
21492;SDS011;10908;50.690;4.400;2023-03-01T01:46:36;15.43;;;7.88;;
21492;SDS011;10908;50.690;4.400;2023-03-01T01:49:06;15.27;;;8.20;;
21492;SDS011;10908;50.690;4.400;2023-03-01T01:51:40;13.48;;;7.70;;
21492;SDS011;10908;50.690;4.400;2023-03-01T01:54:10;13.00;;;7.47;;
21492;SDS011;10908;50.690;4.400;2023-03-01T01:56:40;15.27;;;7.72;;
21492;SDS011;10908;50.690;4.400;2023-03-01T01:59:09;13.93;;;7.45;;
21492;SDS011;10908;50.690;4.400;2023-03-01T02:01:36;14.38;;;7.32;;
21492;SDS011;10908;50.690;4.400;2023-03-01T02:04:02;15.50;;;7.53;;
21492;SDS011;10908;50.690;4.400;2023-03-01T02:06:36;14.00;;;7.55;;
21492;SDS011;10908;50.690;4.400;2023-03-01T02:09:07;15.82;;;8.20;;
21492;SDS011;10908;50.690;4.400;2023-03-01T02:11:36;13.98;;;7.72;;
21492;SDS011;10908;50.690;4.400;2023-03-01T02:14:02;15.63;;;8.05;;
21492;SDS011;10908;50.690;4.400;2023-03-01T02:16:28;16.60;;;8.00;;
21492;SDS011;10908;50.690;4.400;2023-03-01T02:18:56;12.77;;;7.93;;
21492;SDS011;10908;50.690;4.400;2023-03-01T02:27:08;13.52;;;7.35;;
21492;SDS011;10908;50.690;4.400;2023-03-01T02:29:35;13.25;;;7.57;;
21492;SDS011;10908;50.690;4.400;2023-03-01T02:32:01;13.45;;;7.35;;
21492;SDS011;10908;50.690;4.400;2023-03-01T02:34:28;12.82;;;7.43;;
21492;SDS011;10908;50.690;4.400;2023-03-01T02:36:59;13.90;;;7.78;;
21492;SDS011;10908;50.690;4.400;2023-03-01T02:39:39;16.33;;;7.88;;
21492;SDS011;10908;50.690;4.400;2023-03-01T02:42:10;14.45;;;8.15;;
21492;SDS011;10908;50.690;4.400;2023-03-01T02:44:39;12.68;;;7.45;;
21492;SDS011;10908;50.690;4.400;2023-03-01T02:47:05;12.95;;;8.07;;
21492;SDS011;10908;50.690;4.400;2023-03-01T02:49:32;14.18;;;8.52;;
21492;SDS011;10908;50.690;4.400;2023-03-01T02:55:03;12.43;;;7.82;;
21492;SDS011;10908;50.690;4.400;2023-03-01T02:57:31;17.13;;;8.55;;
21492;SDS011;10908;50.690;4.400;2023-03-01T03:00:00;14.93;;;8.07;;
21492;SDS011;10908;50.690;4.400;2023-03-01T03:02:33;13.93;;;8.30;;
21492;SDS011;10908;50.690;4.400;2023-03-01T03:05:08;14.88;;;7.78;;
21492;SDS011;10908;50.690;4.400;2023-03-01T03:07:37;16.05;;;8.50;;
21492;SDS011;10908;50.690;4.400;2023-03-01T03:10:05;14.73;;;8.25;;
21492;SDS011;10908;50.690;4.400;2023-03-01T03:12:32;15.43;;;8.48;;
21492;SDS011;10908;50.690;4.400;2023-03-01T03:14:58;15.25;;;8.52;;
21492;SDS011;10908;50.690;4.400;2023-03-01T03:17:24;18.38;;;8.93;;
21492;SDS011;10908;50.690;4.400;2023-03-01T03:19:49;16.85;;;8.73;;
21492;SDS011;10908;50.690;4.400;2023-03-01T03:22:15;14.93;;;8.85;;
21492;SDS011;10908;50.690;4.400;2023-03-01T03:24:41;17.42;;;8.02;;
21492;SDS011;10908;50.690;4.400;2023-03-01T03:27:07;15.68;;;8.80;;
21492;SDS011;10908;50.690;4.400;2023-03-01T03:29:33;14.52;;;8.65;;
21492;SDS011;10908;50.690;4.400;2023-03-01T03:31:58;20.80;;;8.98;;
21492;SDS011;10908;50.690;4.400;2023-03-01T03:34:24;18.42;;;8.95;;
21492;SDS011;10908;50.690;4.400;2023-03-01T03:36:54;14.90;;;9.20;;
21492;SDS011;10908;50.690;4.400;2023-03-01T03:39:24;14.73;;;8.45;;
21492;SDS011;10908;50.690;4.400;2023-03-01T03:41:52;14.70;;;8.57;;
21492;SDS011;10908;50.690;4.400;2023-03-01T03:44:18;15.65;;;9.45;;
21492;SDS011;10908;50.690;4.400;2023-03-01T03:46:44;18.45;;;9.60;;
21492;SDS011;10908;50.690;4.400;2023-03-01T03:49:10;18.75;;;9.43;;
21492;SDS011;10908;50.690;4.400;2023-03-01T03:51:35;18.70;;;9.18;;
21492;SDS011;10908;50.690;4.400;2023-03-01T03:54:01;16.73;;;9.15;;
21492;SDS011;10908;50.690;4.400;2023-03-01T03:56:27;16.50;;;9.65;;
21492;SDS011;10908;50.690;4.400;2023-03-01T03:58:52;16.67;;;9.65;;
21492;SDS011;10908;50.690;4.400;2023-03-01T04:01:18;14.90;;;8.75;;
21492;SDS011;10908;50.690;4.400;2023-03-01T04:03:44;16.42;;;9.13;;
21492;SDS011;10908;50.690;4.400;2023-03-01T04:06:13;15.35;;;8.73;;
21492;SDS011;10908;50.690;4.400;2023-03-01T04:08:39;15.55;;;9.38;;
21492;SDS011;10908;50.690;4.400;2023-03-01T04:11:05;17.70;;;9.27;;
21492;SDS011;10908;50.690;4.400;2023-03-01T04:13:51;15.35;;;9.18;;
21492;SDS011;10908;50.690;4.400;2023-03-01T04:16:18;14.82;;;8.63;;
21492;SDS011;10908;50.690;4.400;2023-03-01T04:18:44;14.52;;;8.95;;
21492;SDS011;10908;50.690;4.400;2023-03-01T04:21:10;14.93;;;9.45;;
21492;SDS011;10908;50.690;4.400;2023-03-01T04:23:36;15.88;;;8.98;;
21492;SDS011;10908;50.690;4.400;2023-03-01T04:26:02;14.68;;;8.75;;
21492;SDS011;10908;50.690;4.400;2023-03-01T04:28:29;17.55;;;9.60;;
21492;SDS011;10908;50.690;4.400;2023-03-01T04:31:01;16.60;;;9.43;;
21492;SDS011;10908;50.690;4.400;2023-03-01T04:33:43;14.43;;;8.80;;
21492;SDS011;10908;50.690;4.400;2023-03-01T04:36:20;14.80;;;9.82;;
21492;SDS011;10908;50.690;4.400;2023-03-01T04:38:51;15.30;;;9.35;;
21492;SDS011;10908;50.690;4.400;2023-03-01T04:41:17;17.60;;;9.68;;
21492;SDS011;10908;50.690;4.400;2023-03-01T04:43:44;16.67;;;9.63;;
21492;SDS011;10908;50.690;4.400;2023-03-01T04:46:11;16.98;;;9.52;;
21492;SDS011;10908;50.690;4.400;2023-03-01T04:48:39;16.60;;;9.63;;
21492;SDS011;10908;50.690;4.400;2023-03-01T04:51:06;15.93;;;9.27;;
21492;SDS011;10908;50.690;4.400;2023-03-01T04:53:32;19.08;;;9.55;;
21492;SDS011;10908;50.690;4.400;2023-03-01T04:56:01;18.67;;;9.50;;
21492;SDS011;10908;50.690;4.400;2023-03-01T04:58:27;16.45;;;8.90;;
21492;SDS011;10908;50.690;4.400;2023-03-01T05:00:54;18.25;;;9.75;;
21492;SDS011;10908;50.690;4.400;2023-03-01T05:03:20;16.40;;;9.35;;
21492;SDS011;10908;50.690;4.400;2023-03-01T05:05:47;19.05;;;10.32;;
21492;SDS011;10908;50.690;4.400;2023-03-01T05:08:14;18.17;;;9.85;;
21492;SDS011;10908;50.690;4.400;2023-03-01T05:10:48;15.68;;;9.15;;
21492;SDS011;10908;50.690;4.400;2023-03-01T05:13:16;17.27;;;9.65;;
21492;SDS011;10908;50.690;4.400;2023-03-01T05:15:56;16.23;;;9.15;;
21492;SDS011;10908;50.690;4.400;2023-03-01T05:18:23;17.73;;;10.02;;
21492;SDS011;10908;50.690;4.400;2023-03-01T05:21:00;16.05;;;9.55;;
21492;SDS011;10908;50.690;4.400;2023-03-01T05:23:29;20.35;;;9.50;;
21492;SDS011;10908;50.690;4.400;2023-03-01T05:25:58;18.40;;;9.40;;
21492;SDS011;10908;50.690;4.400;2023-03-01T05:28:25;15.88;;;9.38;;
21492;SDS011;10908;50.690;4.400;2023-03-01T05:30:51;18.35;;;9.25;;
21492;SDS011;10908;50.690;4.400;2023-03-01T05:33:17;18.17;;;10.20;;
21492;SDS011;10908;50.690;4.400;2023-03-01T05:35:44;17.88;;;9.27;;
21492;SDS011;10908;50.690;4.400;2023-03-01T05:38:10;21.95;;;9.95;;
21492;SDS011;10908;50.690;4.400;2023-03-01T05:40:41;19.58;;;10.13;;
21492;SDS011;10908;50.690;4.400;2023-03-01T05:43:08;18.40;;;10.30;;
21492;SDS011;10908;50.690;4.400;2023-03-01T05:45:35;17.40;;;9.90;;
21492;SDS011;10908;50.690;4.400;2023-03-01T05:48:02;17.88;;;9.48;;
21492;SDS011;10908;50.690;4.400;2023-03-01T05:50:29;18.02;;;9.48;;
21492;SDS011;10908;50.690;4.400;2023-03-01T05:55:30;15.93;;;9.27;;
21492;SDS011;10908;50.690;4.400;2023-03-01T05:58:05;16.52;;;9.68;;
21492;SDS011;10908;50.690;4.400;2023-03-01T06:00:32;16.55;;;9.70;;
21492;SDS011;10908;50.690;4.400;2023-03-01T06:02:59;17.45;;;10.07;;
21492;SDS011;10908;50.690;4.400;2023-03-01T06:05:26;17.40;;;10.13;;
21492;SDS011;10908;50.690;4.400;2023-03-01T06:07:52;18.75;;;10.05;;
21492;SDS011;10908;50.690;4.400;2023-03-01T06:10:18;17.63;;;9.82;;
21492;SDS011;10908;50.690;4.400;2023-03-01T06:12:45;17.77;;;10.25;;
21492;SDS011;10908;50.690;4.400;2023-03-01T06:15:12;17.92;;;10.40;;
21492;SDS011;10908;50.690;4.400;2023-03-01T06:17:39;18.88;;;10.45;;
21492;SDS011;10908;50.690;4.400;2023-03-01T06:20:10;17.17;;;9.98;;
21492;SDS011;10908;50.690;4.400;2023-03-01T06:22:44;19.50;;;10.45;;
21492;SDS011;10908;50.690;4.400;2023-03-01T06:25:11;19.85;;;10.55;;
21492;SDS011;10908;50.690;4.400;2023-03-01T06:27:39;22.83;;;10.77;;
21492;SDS011;10908;50.690;4.400;2023-03-01T06:30:05;21.30;;;10.43;;
21492;SDS011;10908;50.690;4.400;2023-03-01T06:32:32;21.42;;;10.38;;
21492;SDS011;10908;50.690;4.400;2023-03-01T06:34:57;18.63;;;10.18;;
21492;SDS011;10908;50.690;4.400;2023-03-01T06:37:23;19.33;;;10.13;;
21492;SDS011;10908;50.690;4.400;2023-03-01T06:39:50;19.52;;;10.60;;
21492;SDS011;10908;50.690;4.400;2023-03-01T06:42:15;18.77;;;10.88;;
21492;SDS011;10908;50.690;4.400;2023-03-01T06:44:41;19.35;;;10.73;;
21492;SDS011;10908;50.690;4.400;2023-03-01T06:47:07;21.00;;;10.57;;
21492;SDS011;10908;50.690;4.400;2023-03-01T06:49:32;18.83;;;10.57;;
21492;SDS011;10908;50.690;4.400;2023-03-01T06:51:58;21.60;;;11.10;;
21492;SDS011;10908;50.690;4.400;2023-03-01T06:54:24;18.75;;;11.00;;
21492;SDS011;10908;50.690;4.400;2023-03-01T06:56:49;18.00;;;10.55;;
21492;SDS011;10908;50.690;4.400;2023-03-01T06:59:16;19.77;;;10.75;;
21492;SDS011;10908;50.690;4.400;2023-03-01T07:01:42;20.15;;;10.52;;
21492;SDS011;10908;50.690;4.400;2023-03-01T07:04:08;17.42;;;10.70;;
21492;SDS011;10908;50.690;4.400;2023-03-01T07:06:34;20.15;;;10.55;;
21492;SDS011;10908;50.690;4.400;2023-03-01T07:09:00;20.33;;;10.57;;
21492;SDS011;10908;50.690;4.400;2023-03-01T07:11:26;21.38;;;11.25;;
21492;SDS011;10908;50.690;4.400;2023-03-01T07:13:51;19.95;;;10.60;;
21492;SDS011;10908;50.690;4.400;2023-03-01T07:16:17;18.10;;;9.75;;
21492;SDS011;10908;50.690;4.400;2023-03-01T07:18:43;20.27;;;10.85;;
21492;SDS011;10908;50.690;4.400;2023-03-01T07:21:11;18.83;;;11.13;;
21492;SDS011;10908;50.690;4.400;2023-03-01T07:23:38;20.67;;;10.88;;
21492;SDS011;10908;50.690;4.400;2023-03-01T07:26:04;21.88;;;10.63;;
21492;SDS011;10908;50.690;4.400;2023-03-01T07:28:30;18.40;;;10.18;;
21492;SDS011;10908;50.690;4.400;2023-03-01T07:31:00;19.30;;;11.25;;
21492;SDS011;10908;50.690;4.400;2023-03-01T07:33:27;16.73;;;9.93;;
21492;SDS011;10908;50.690;4.400;2023-03-01T07:36:02;20.15;;;10.02;;
21492;SDS011;10908;50.690;4.400;2023-03-01T07:38:29;17.02;;;9.85;;
21492;SDS011;10908;50.690;4.400;2023-03-01T07:40:58;16.92;;;9.85;;
21492;SDS011;10908;50.690;4.400;2023-03-01T07:43:25;22.23;;;11.15;;
21492;SDS011;10908;50.690;4.400;2023-03-01T07:45:52;17.92;;;9.90;;
21492;SDS011;10908;50.690;4.400;2023-03-01T07:48:17;19.88;;;10.27;;
21492;SDS011;10908;50.690;4.400;2023-03-01T07:50:43;18.92;;;11.15;;
21492;SDS011;10908;50.690;4.400;2023-03-01T07:53:09;21.00;;;11.65;;
21492;SDS011;10908;50.690;4.400;2023-03-01T07:55:35;21.73;;;11.50;;
21492;SDS011;10908;50.690;4.400;2023-03-01T07:58:01;16.65;;;9.77;;
21492;SDS011;10908;50.690;4.400;2023-03-01T08:00:26;21.13;;;10.05;;
21492;SDS011;10908;50.690;4.400;2023-03-01T08:02:52;19.13;;;9.88;;
21492;SDS011;10908;50.690;4.400;2023-03-01T08:05:18;19.33;;;10.55;;
21492;SDS011;10908;50.690;4.400;2023-03-01T08:07:43;20.35;;;10.82;;
21492;SDS011;10908;50.690;4.400;2023-03-01T08:10:09;20.08;;;10.43;;
21492;SDS011;10908;50.690;4.400;2023-03-01T08:12:35;19.85;;;9.70;;
21492;SDS011;10908;50.690;4.400;2023-03-01T08:15:01;24.20;;;11.23;;
21492;SDS011;10908;50.690;4.400;2023-03-01T08:17:27;20.95;;;10.85;;
21492;SDS011;10908;50.690;4.400;2023-03-01T08:19:52;19.10;;;10.35;;
21492;SDS011;10908;50.690;4.400;2023-03-01T08:22:18;21.95;;;10.93;;
21492;SDS011;10908;50.690;4.400;2023-03-01T08:24:43;18.65;;;10.57;;
21492;SDS011;10908;50.690;4.400;2023-03-01T08:27:09;20.35;;;10.60;;
21492;SDS011;10908;50.690;4.400;2023-03-01T08:29:35;21.70;;;11.13;;
21492;SDS011;10908;50.690;4.400;2023-03-01T08:32:00;19.35;;;10.52;;
21492;SDS011;10908;50.690;4.400;2023-03-01T08:34:26;22.50;;;11.10;;
21492;SDS011;10908;50.690;4.400;2023-03-01T08:36:52;19.65;;;10.57;;
21492;SDS011;10908;50.690;4.400;2023-03-01T08:39:18;21.88;;;10.70;;
21492;SDS011;10908;50.690;4.400;2023-03-01T08:41:45;22.73;;;10.80;;
21492;SDS011;10908;50.690;4.400;2023-03-01T08:44:11;19.98;;;10.57;;
21492;SDS011;10908;50.690;4.400;2023-03-01T08:46:39;20.67;;;10.05;;
21492;SDS011;10908;50.690;4.400;2023-03-01T08:49:07;21.65;;;10.85;;
21492;SDS011;10908;50.690;4.400;2023-03-01T08:51:34;22.60;;;11.23;;
21492;SDS011;10908;50.690;4.400;2023-03-01T08:54:09;22.23;;;11.00;;
21492;SDS011;10908;50.690;4.400;2023-03-01T08:56:36;19.17;;;10.15;;
21492;SDS011;10908;50.690;4.400;2023-03-01T08:59:02;19.40;;;11.13;;
21492;SDS011;10908;50.690;4.400;2023-03-01T09:01:28;21.42;;;11.15;;
21492;SDS011;10908;50.690;4.400;2023-03-01T09:03:54;21.35;;;10.65;;
21492;SDS011;10908;50.690;4.400;2023-03-01T09:06:19;21.77;;;10.25;;
21492;SDS011;10908;50.690;4.400;2023-03-01T09:08:46;21.65;;;10.85;;
21492;SDS011;10908;50.690;4.400;2023-03-01T09:11:14;18.95;;;10.63;;
21492;SDS011;10908;50.690;4.400;2023-03-01T09:13:45;20.83;;;10.85;;
21492;SDS011;10908;50.690;4.400;2023-03-01T09:16:12;20.33;;;11.68;;
21492;SDS011;10908;50.690;4.400;2023-03-01T09:18:38;19.33;;;10.60;;
21492;SDS011;10908;50.690;4.400;2023-03-01T09:21:06;22.30;;;11.40;;
21492;SDS011;10908;50.690;4.400;2023-03-01T09:23:38;20.85;;;11.73;;
21492;SDS011;10908;50.690;4.400;2023-03-01T09:26:06;18.45;;;10.43;;
21492;SDS011;10908;50.690;4.400;2023-03-01T09:28:33;19.70;;;10.95;;
21492;SDS011;10908;50.690;4.400;2023-03-01T09:31:00;18.98;;;10.15;;
21492;SDS011;10908;50.690;4.400;2023-03-01T09:33:27;19.05;;;11.18;;
21492;SDS011;10908;50.690;4.400;2023-03-01T09:35:58;19.60;;;11.38;;
21492;SDS011;10908;50.690;4.400;2023-03-01T09:38:31;20.75;;;10.88;;
21492;SDS011;10908;50.690;4.400;2023-03-01T09:40:56;22.30;;;11.55;;
21492;SDS011;10908;50.690;4.400;2023-03-01T09:43:39;19.17;;;10.70;;
21492;SDS011;10908;50.690;4.400;2023-03-01T09:46:10;19.08;;;10.10;;
21492;SDS011;10908;50.690;4.400;2023-03-01T09:48:41;18.98;;;11.02;;
21492;SDS011;10908;50.690;4.400;2023-03-01T09:51:35;20.45;;;11.32;;
21492;SDS011;10908;50.690;4.400;2023-03-01T09:54:04;19.40;;;11.00;;
21492;SDS011;10908;50.690;4.400;2023-03-01T10:01:41;20.52;;;10.73;;
21492;SDS011;10908;50.690;4.400;2023-03-01T10:07:07;19.17;;;10.45;;
21492;SDS011;10908;50.690;4.400;2023-03-01T10:09:45;19.30;;;9.90;;
21492;SDS011;10908;50.690;4.400;2023-03-01T10:12:14;18.60;;;11.07;;
21492;SDS011;10908;50.690;4.400;2023-03-01T10:22:41;19.08;;;10.57;;
21492;SDS011;10908;50.690;4.400;2023-03-01T10:25:08;21.67;;;10.60;;
21492;SDS011;10908;50.690;4.400;2023-03-01T10:30:38;18.40;;;9.35;;
21492;SDS011;10908;50.690;4.400;2023-03-01T10:35:49;20.15;;;11.88;;
21492;SDS011;10908;50.690;4.400;2023-03-01T10:38:15;20.17;;;11.00;;
21492;SDS011;10908;50.690;4.400;2023-03-01T10:40:55;22.05;;;10.50;;
21492;SDS011;10908;50.690;4.400;2023-03-01T10:43:30;20.40;;;10.15;;
21492;SDS011;10908;50.690;4.400;2023-03-01T10:49:21;20.73;;;10.65;;
21492;SDS011;10908;50.690;4.400;2023-03-01T10:51:49;20.08;;;10.15;;
21492;SDS011;10908;50.690;4.400;2023-03-01T10:54:18;17.55;;;10.05;;
21492;SDS011;10908;50.690;4.400;2023-03-01T10:56:54;20.92;;;10.30;;
21492;SDS011;10908;50.690;4.400;2023-03-01T10:59:22;20.58;;;10.48;;
21492;SDS011;10908;50.690;4.400;2023-03-01T11:02:00;20.17;;;10.60;;
21492;SDS011;10908;50.690;4.400;2023-03-01T11:04:56;16.80;;;8.90;;
21492;SDS011;10908;50.690;4.400;2023-03-01T11:07:25;19.08;;;10.48;;
21492;SDS011;10908;50.690;4.400;2023-03-01T11:09:50;17.55;;;10.07;;
21492;SDS011;10908;50.690;4.400;2023-03-01T11:12:16;19.02;;;10.80;;
21492;SDS011;10908;50.690;4.400;2023-03-01T11:14:50;17.52;;;10.43;;
21492;SDS011;10908;50.690;4.400;2023-03-01T11:17:21;19.05;;;10.13;;
21492;SDS011;10908;50.690;4.400;2023-03-01T11:22:39;17.83;;;9.57;;
21492;SDS011;10908;50.690;4.400;2023-03-01T11:25:37;18.88;;;10.00;;
21492;SDS011;10908;50.690;4.400;2023-03-01T11:28:07;15.60;;;9.18;;
21492;SDS011;10908;50.690;4.400;2023-03-01T11:30:53;16.45;;;9.40;;
21492;SDS011;10908;50.690;4.400;2023-03-01T11:36:13;18.48;;;9.52;;
21492;SDS011;10908;50.690;4.400;2023-03-01T11:39:39;15.95;;;9.18;;
21492;SDS011;10908;50.690;4.400;2023-03-01T11:42:30;16.75;;;9.23;;
21492;SDS011;10908;50.690;4.400;2023-03-01T11:45:10;16.92;;;9.07;;
21492;SDS011;10908;50.690;4.400;2023-03-01T11:50:34;17.52;;;9.20;;
21492;SDS011;10908;50.690;4.400;2023-03-01T12:01:15;19.73;;;9.93;;
21492;SDS011;10908;50.690;4.400;2023-03-01T12:04:18;18.67;;;9.38;;
21492;SDS011;10908;50.690;4.400;2023-03-01T12:06:47;18.63;;;9.70;;
21492;SDS011;10908;50.690;4.400;2023-03-01T12:23:41;16.48;;;9.23;;
21492;SDS011;10908;50.690;4.400;2023-03-01T12:26:27;17.58;;;8.95;;
21492;SDS011;10908;50.690;4.400;2023-03-01T12:42:47;15.18;;;8.95;;
21492;SDS011;10908;50.690;4.400;2023-03-01T12:51:38;16.15;;;8.85;;
21492;SDS011;10908;50.690;4.400;2023-03-01T12:54:07;14.98;;;8.35;;
21492;SDS011;10908;50.690;4.400;2023-03-01T12:56:39;16.08;;;8.80;;
21492;SDS011;10908;50.690;4.400;2023-03-01T13:01:55;15.98;;;8.65;;
21492;SDS011;10908;50.690;4.400;2023-03-01T13:10:29;18.98;;;9.18;;
21492;SDS011;10908;50.690;4.400;2023-03-01T13:13:11;17.90;;;8.65;;
21492;SDS011;10908;50.690;4.400;2023-03-01T13:15:47;17.48;;;8.80;;
21492;SDS011;10908;50.690;4.400;2023-03-01T13:25:32;16.25;;;8.25;;
21492;SDS011;10908;50.690;4.400;2023-03-01T13:31:02;17.95;;;9.30;;
21492;SDS011;10908;50.690;4.400;2023-03-01T13:36:01;18.60;;;8.70;;
21492;SDS011;10908;50.690;4.400;2023-03-01T13:38:54;16.42;;;8.45;;
21492;SDS011;10908;50.690;4.400;2023-03-01T13:41:17;17.92;;;8.98;;
21492;SDS011;10908;50.690;4.400;2023-03-01T13:44:11;16.67;;;8.60;;
21492;SDS011;10908;50.690;4.400;2023-03-01T13:46:40;18.05;;;8.48;;
21492;SDS011;10908;50.690;4.400;2023-03-01T13:49:09;15.02;;;8.57;;
21492;SDS011;10908;50.690;4.400;2023-03-01T13:51:40;14.38;;;7.57;;
21492;SDS011;10908;50.690;4.400;2023-03-01T13:54:10;15.07;;;8.30;;
21492;SDS011;10908;50.690;4.400;2023-03-01T13:56:38;14.73;;;7.95;;
21492;SDS011;10908;50.690;4.400;2023-03-01T13:59:06;14.70;;;8.27;;
21492;SDS011;10908;50.690;4.400;2023-03-01T14:01:38;14.65;;;8.60;;
21492;SDS011;10908;50.690;4.400;2023-03-01T14:04:18;16.38;;;8.13;;
21492;SDS011;10908;50.690;4.400;2023-03-01T14:06:48;15.40;;;8.35;;
21492;SDS011;10908;50.690;4.400;2023-03-01T14:09:23;15.57;;;8.18;;
21492;SDS011;10908;50.690;4.400;2023-03-01T14:14:39;15.02;;;8.00;;
21492;SDS011;10908;50.690;4.400;2023-03-01T14:17:50;14.27;;;7.80;;
21492;SDS011;10908;50.690;4.400;2023-03-01T14:20:18;14.88;;;8.00;;
21492;SDS011;10908;50.690;4.400;2023-03-01T14:22:46;15.38;;;8.02;;
21492;SDS011;10908;50.690;4.400;2023-03-01T14:25:19;14.85;;;7.97;;
21492;SDS011;10908;50.690;4.400;2023-03-01T14:27:51;15.02;;;7.90;;
21492;SDS011;10908;50.690;4.400;2023-03-01T14:30:33;15.32;;;7.68;;
21492;SDS011;10908;50.690;4.400;2023-03-01T14:33:15;18.80;;;8.13;;
21492;SDS011;10908;50.690;4.400;2023-03-01T14:35:52;14.50;;;7.55;;
21492;SDS011;10908;50.690;4.400;2023-03-01T14:38:23;19.95;;;8.30;;
21492;SDS011;10908;50.690;4.400;2023-03-01T14:41:13;21.25;;;8.02;;
21492;SDS011;10908;50.690;4.400;2023-03-01T14:43:46;16.33;;;8.10;;
21492;SDS011;10908;50.690;4.400;2023-03-01T14:49:10;16.80;;;8.32;;
21492;SDS011;10908;50.690;4.400;2023-03-01T14:51:41;13.88;;;7.80;;
21492;SDS011;10908;50.690;4.400;2023-03-01T14:54:37;15.98;;;8.65;;
21492;SDS011;10908;50.690;4.400;2023-03-01T15:00:07;15.32;;;8.60;;
21492;SDS011;10908;50.690;4.400;2023-03-01T15:02:40;15.63;;;8.38;;
21492;SDS011;10908;50.690;4.400;2023-03-01T15:05:08;17.83;;;8.07;;
21492;SDS011;10908;50.690;4.400;2023-03-01T15:07:41;13.77;;;8.35;;
21492;SDS011;10908;50.690;4.400;2023-03-01T15:10:24;16.10;;;8.50;;
21492;SDS011;10908;50.690;4.400;2023-03-01T15:12:53;17.17;;;8.85;;
21492;SDS011;10908;50.690;4.400;2023-03-01T15:15:19;17.95;;;9.18;;
21492;SDS011;10908;50.690;4.400;2023-03-01T15:17:52;14.73;;;8.30;;
21492;SDS011;10908;50.690;4.400;2023-03-01T15:20:20;18.10;;;8.85;;
21492;SDS011;10908;50.690;4.400;2023-03-01T15:22:50;17.20;;;8.82;;
21492;SDS011;10908;50.690;4.400;2023-03-01T15:25:18;19.50;;;9.20;;
21492;SDS011;10908;50.690;4.400;2023-03-01T15:27:45;15.90;;;9.25;;
21492;SDS011;10908;50.690;4.400;2023-03-01T15:30:17;17.45;;;9.55;;
21492;SDS011;10908;50.690;4.400;2023-03-01T15:32:44;16.90;;;8.63;;
21492;SDS011;10908;50.690;4.400;2023-03-01T15:40:54;19.33;;;10.25;;
21492;SDS011;10908;50.690;4.400;2023-03-01T15:55:37;15.18;;;8.95;;
21492;SDS011;10908;50.690;4.400;2023-03-01T15:58:08;14.40;;;8.05;;
21492;SDS011;10908;50.690;4.400;2023-03-01T16:00:37;19.90;;;9.30;;
21492;SDS011;10908;50.690;4.400;2023-03-01T16:03:04;14.20;;;8.77;;
21492;SDS011;10908;50.690;4.400;2023-03-01T16:05:31;15.43;;;7.78;;
21492;SDS011;10908;50.690;4.400;2023-03-01T16:07:59;13.73;;;7.75;;
21492;SDS011;10908;50.690;4.400;2023-03-01T16:10:26;17.10;;;7.65;;
21492;SDS011;10908;50.690;4.400;2023-03-01T16:12:52;13.60;;;7.95;;
21492;SDS011;10908;50.690;4.400;2023-03-01T16:15:23;13.00;;;7.45;;
21492;SDS011;10908;50.690;4.400;2023-03-01T16:17:50;15.20;;;8.02;;
21492;SDS011;10908;50.690;4.400;2023-03-01T16:20:17;15.60;;;7.88;;
21492;SDS011;10908;50.690;4.400;2023-03-01T16:22:43;21.02;;;8.35;;
21492;SDS011;10908;50.690;4.400;2023-03-01T16:25:10;15.30;;;7.90;;
21492;SDS011;10908;50.690;4.400;2023-03-01T16:27:37;15.82;;;8.30;;
21492;SDS011;10908;50.690;4.400;2023-03-01T16:30:04;15.77;;;8.40;;
21492;SDS011;10908;50.690;4.400;2023-03-01T16:32:31;15.70;;;8.30;;
21492;SDS011;10908;50.690;4.400;2023-03-01T16:34:56;18.30;;;8.13;;
21492;SDS011;10908;50.690;4.400;2023-03-01T16:37:22;15.02;;;8.77;;
21492;SDS011;10908;50.690;4.400;2023-03-01T16:39:48;15.52;;;7.93;;
21492;SDS011;10908;50.690;4.400;2023-03-01T16:42:16;16.92;;;8.77;;
21492;SDS011;10908;50.690;4.400;2023-03-01T16:44:42;16.25;;;8.68;;
21492;SDS011;10908;50.690;4.400;2023-03-01T16:47:08;16.75;;;8.85;;
21492;SDS011;10908;50.690;4.400;2023-03-01T16:49:33;16.00;;;9.07;;
21492;SDS011;10908;50.690;4.400;2023-03-01T16:51:59;19.52;;;9.82;;
21492;SDS011;10908;50.690;4.400;2023-03-01T16:54:25;17.75;;;10.27;;
21492;SDS011;10908;50.690;4.400;2023-03-01T16:56:50;16.17;;;8.98;;
21492;SDS011;10908;50.690;4.400;2023-03-01T16:59:16;25.23;;;12.85;;